createdAt,value
2023-03-20T00:02:22.762Z,73.93
2023-03-20T00:04:50.114Z,72.69
2023-03-20T00:07:17.135Z,73.27
2023-03-20T00:09:44.063Z,74.24
2023-03-20T00:12:17.980Z,72.39
2023-03-20T00:14:45.231Z,73.45
2023-03-20T00:17:20.006Z,73.83
2023-03-20T00:19:47.115Z,73.26
2023-03-20T00:22:14.165Z,72.66
2023-03-20T00:24:41.414Z,71.85
2023-03-20T00:27:14.125Z,73.46
2023-03-20T00:29:41.237Z,72.33
2023-03-20T00:32:15.483Z,71.54
2023-03-20T00:34:42.515Z,72.94
2023-03-20T00:37:11.607Z,73.13
2023-03-20T00:39:38.734Z,75.15
2023-03-20T00:42:07.655Z,73.29
2023-03-20T00:44:44.338Z,74.16
2023-03-20T00:47:20.568Z,75.49
2023-03-20T00:49:50.730Z,73.45
2023-03-20T00:52:19.752Z,74.05
2023-03-20T00:54:47.146Z,74.11
2023-03-20T00:57:42.731Z,73.40
2023-03-20T01:00:43.644Z,72.47
2023-03-20T01:03:17.987Z,74.43
2023-03-20T01:05:49.647Z,73.63
2023-03-20T01:08:20.727Z,72.64
2023-03-20T01:10:56.341Z,73.25
2023-03-20T01:13:30.225Z,74.18
2023-03-20T01:15:58.200Z,74.56
2023-03-20T01:18:26.889Z,73.75
2023-03-20T01:20:53.864Z,72.66
2023-03-20T01:23:23.037Z,75.33
2023-03-20T01:25:50.700Z,73.32
2023-03-20T01:28:23.721Z,73.13
2023-03-20T01:30:50.941Z,75.51
2023-03-20T01:33:24.079Z,73.46
2023-03-20T01:35:55.131Z,75.27
2023-03-20T01:38:25.730Z,73.52
2023-03-20T01:41:11.902Z,73.16
2023-03-20T01:43:40.464Z,73.51
2023-03-20T01:46:11.942Z,73.44
2023-03-20T01:48:52.047Z,71.10
2023-03-20T01:51:23.086Z,72.44
2023-03-20T01:53:59.294Z,71.46
2023-03-20T01:56:29.436Z,75.11
2023-03-20T01:59:05.572Z,74.30
2023-03-20T02:01:35.743Z,73.32
2023-03-20T02:04:03.228Z,73.30
2023-03-20T02:06:57.207Z,74.23
2023-03-20T02:09:32.542Z,74.31
2023-03-20T02:12:01.278Z,72.41
2023-03-20T02:14:29.517Z,72.60
2023-03-20T02:17:08.997Z,73.46
2023-03-20T02:20:09.826Z,73.13
2023-03-20T02:23:25.554Z,72.77
2023-03-20T02:26:35.999Z,72.55
2023-03-20T02:29:28.450Z,73.57
2023-03-20T02:32:11.792Z,72.66
2023-03-20T02:35:38.275Z,70.96
2023-03-20T02:38:30.709Z,73.20
2023-03-20T02:41:24.861Z,71.06
2023-03-20T02:44:12.357Z,71.47
2023-03-20T02:46:54.608Z,71.75
2023-03-20T02:49:53.004Z,72.12
2023-03-20T02:53:06.601Z,71.39
2023-03-20T02:55:51.376Z,72.53
2023-03-20T02:58:29.634Z,70.98
2023-03-20T03:01:16.136Z,71.09
2023-03-20T03:04:17.795Z,74.62
2023-03-20T03:06:50.002Z,71.74
2023-03-20T03:09:32.855Z,70.56
2023-03-20T03:12:20.596Z,71.02
2023-03-20T03:15:01.811Z,70.48
2023-03-20T03:17:34.504Z,71.38
2023-03-20T03:20:37.113Z,70.00
2023-03-20T03:23:05.425Z,71.33
2023-03-20T03:25:41.173Z,70.41
2023-03-20T03:28:19.667Z,70.10
2023-03-20T03:30:46.737Z,71.13
2023-03-20T03:33:27.401Z,70.66
2023-03-20T03:36:16.506Z,70.29
2023-03-20T03:39:01.977Z,70.48
2023-03-20T03:41:59.489Z,70.04
2023-03-20T03:45:04.457Z,70.04
2023-03-20T03:47:58.371Z,69.65
2023-03-20T03:50:33.775Z,69.88
2023-03-20T03:53:09.323Z,71.19
2023-03-20T03:55:42.780Z,73.05
2023-03-20T03:58:41.684Z,70.40
2023-03-20T04:01:12.286Z,73.87
2023-03-20T04:03:47.049Z,71.06
2023-03-20T04:06:16.130Z,71.14
2023-03-20T04:08:43.816Z,70.97
2023-03-20T04:11:18.385Z,70.60
2023-03-20T04:13:50.946Z,70.40
2023-03-20T04:16:21.199Z,70.56
2023-03-20T04:18:49.123Z,70.83
2023-03-20T04:21:16.814Z,70.99
2023-03-20T04:23:44.725Z,70.76
2023-03-20T04:26:11.985Z,70.80
2023-03-20T04:28:39.000Z,70.81
2023-03-20T04:31:37.217Z,71.31
2023-03-20T04:34:13.051Z,70.38
2023-03-20T04:36:57.928Z,70.60
2023-03-20T04:39:33.531Z,70.47
2023-03-20T04:42:02.909Z,70.59
2023-03-20T04:44:30.202Z,70.71
2023-03-20T04:46:57.758Z,70.48
2023-03-20T04:49:25.084Z,70.31
2023-03-20T04:51:52.268Z,71.16
2023-03-20T04:54:29.445Z,70.74
2023-03-20T04:56:56.757Z,70.76
2023-03-20T04:59:24.043Z,70.88
2023-03-20T05:01:51.188Z,71.17
2023-03-20T05:04:18.351Z,70.83
2023-03-20T05:06:49.006Z,70.78
2023-03-20T05:09:17.661Z,71.49
2023-03-20T05:11:45.613Z,71.20
2023-03-20T05:14:32.532Z,70.51
2023-03-20T05:17:19.601Z,71.01
2023-03-20T05:20:12.036Z,71.08
2023-03-20T05:23:11.281Z,70.62
2023-03-20T05:25:49.065Z,70.66
2023-03-20T05:28:27.954Z,71.20
2023-03-20T05:31:08.848Z,70.40
2023-03-20T05:33:54.633Z,71.17
2023-03-20T05:36:28.621Z,70.74
2023-03-20T05:39:14.509Z,71.23
2023-03-20T05:42:01.498Z,70.99
2023-03-20T05:44:49.549Z,71.10
2023-03-20T05:47:35.341Z,71.54
2023-03-20T05:50:34.549Z,71.09
2023-03-20T05:53:21.800Z,71.38
2023-03-20T05:56:19.930Z,71.01
2023-03-20T05:59:22.113Z,71.44
2023-03-20T06:02:01.954Z,71.16
2023-03-20T06:04:32.404Z,71.49
2023-03-20T06:07:17.718Z,71.51
2023-03-20T06:09:53.120Z,72.00
2023-03-20T06:12:20.466Z,72.06
2023-03-20T06:14:47.625Z,72.51
2023-03-20T06:17:14.862Z,72.01
2023-03-20T06:19:42.862Z,72.22
2023-03-20T06:22:09.833Z,72.14
2023-03-20T06:24:38.104Z,72.68
2023-03-20T06:27:05.873Z,72.29
2023-03-20T06:29:33.034Z,72.81
2023-03-20T06:32:12.325Z,72.46
2023-03-20T06:34:39.553Z,72.42
2023-03-20T06:37:06.524Z,72.43
2023-03-20T06:39:33.661Z,73.18
2023-03-20T06:42:01.026Z,73.59
2023-03-20T06:44:28.557Z,72.65
2023-03-20T06:47:16.283Z,72.48
2023-03-20T06:49:45.949Z,72.30
2023-03-20T06:52:19.364Z,71.88
2023-03-20T06:54:56.689Z,72.48
2023-03-20T06:57:24.214Z,72.95
2023-03-20T06:59:51.205Z,72.89
2023-03-20T07:02:18.246Z,73.17
2023-03-20T07:04:45.436Z,73.21
2023-03-20T07:07:12.657Z,73.53
2023-03-20T07:09:40.476Z,73.89
2023-03-20T07:12:15.799Z,72.92
2023-03-20T07:14:43.867Z,74.35
2023-03-20T07:17:15.348Z,73.83
2023-03-20T07:19:42.576Z,74.84
2023-03-20T07:22:20.826Z,73.03
2023-03-20T07:24:47.836Z,74.26
2023-03-20T07:27:14.976Z,73.68
2023-03-20T07:29:42.332Z,73.92
2023-03-20T07:32:13.549Z,74.21
2023-03-20T07:34:48.326Z,73.72
2023-03-20T07:37:15.782Z,73.99
2023-03-20T07:39:48.056Z,75.31
2023-03-20T07:42:32.625Z,74.07
2023-03-20T07:45:09.328Z,73.89
2023-03-20T07:47:36.552Z,74.40
2023-03-20T07:50:08.233Z,74.25
2023-03-20T07:52:35.465Z,74.24
2023-03-20T07:55:02.436Z,74.41
2023-03-20T07:57:29.358Z,74.11
2023-03-20T07:59:57.476Z,74.08
2023-03-20T08:02:24.404Z,75.00
2023-03-20T08:04:51.606Z,74.14
2023-03-20T08:07:18.557Z,74.74
2023-03-20T08:09:45.579Z,74.67
2023-03-20T08:12:12.504Z,74.80
2023-03-20T08:14:39.753Z,74.55
2023-03-20T08:17:15.089Z,74.35
2023-03-20T08:19:43.538Z,75.52
2023-03-20T08:22:11.003Z,75.06
2023-03-20T08:24:38.015Z,75.36
2023-03-20T08:27:05.042Z,75.04
2023-03-20T08:29:32.002Z,75.08
2023-03-20T08:31:59.006Z,76.09
2023-03-20T08:34:26.356Z,75.34
2023-03-20T08:36:53.335Z,75.02
2023-03-20T08:39:20.476Z,75.80
2023-03-20T08:41:47.409Z,75.39
2023-03-20T08:44:14.794Z,75.30
2023-03-20T08:46:43.677Z,74.90
2023-03-20T08:49:10.691Z,75.48
2023-03-20T08:51:37.628Z,75.86
2023-03-20T08:54:04.936Z,75.57
2023-03-20T08:56:31.920Z,75.54
2023-03-20T08:58:58.856Z,75.73
2023-03-20T09:01:35.350Z,76.14
2023-03-20T09:04:09.027Z,75.83
2023-03-20T09:06:40.959Z,75.30
2023-03-20T09:09:08.282Z,76.32
2023-03-20T09:11:35.338Z,76.10
2023-03-20T09:14:02.290Z,75.66
2023-03-20T09:16:29.334Z,76.79
2023-03-20T09:18:56.380Z,76.74
2023-03-20T09:21:23.338Z,76.89
2023-03-20T09:23:50.318Z,76.15
2023-03-20T09:26:17.258Z,76.16
2023-03-20T09:28:44.162Z,76.62
2023-03-20T09:31:11.992Z,76.52
2023-03-20T09:33:39.067Z,75.79
2023-03-20T09:36:08.317Z,76.14
2023-03-20T09:38:35.312Z,75.82
2023-03-20T09:41:05.051Z,76.93
2023-03-20T09:43:53.258Z,75.87
2023-03-20T09:46:25.702Z,75.79
2023-03-20T09:49:17.565Z,75.68
2023-03-20T09:52:00.533Z,76.55
2023-03-20T09:54:54.142Z,75.73
2023-03-20T09:57:28.368Z,75.83
2023-03-20T10:00:07.414Z,76.27
2023-03-20T10:02:45.325Z,76.76
2023-03-20T10:05:25.615Z,75.77
2023-03-20T10:07:56.719Z,75.97
2023-03-20T10:10:51.588Z,75.91
2023-03-20T10:13:24.210Z,76.25
2023-03-20T10:16:08.544Z,76.61
2023-03-20T10:18:40.931Z,76.94
2023-03-20T10:21:23.493Z,76.14
2023-03-20T10:24:15.750Z,76.13
2023-03-20T10:26:43.023Z,77.18
2023-03-20T10:29:39.803Z,76.33
2023-03-20T10:32:27.619Z,76.78
2023-03-20T10:35:37.354Z,76.90
2023-03-20T10:38:16.344Z,76.64
2023-03-20T10:40:44.056Z,77.13
2023-03-20T10:43:21.496Z,76.76
2023-03-20T10:45:56.805Z,76.50
2023-03-20T10:48:29.372Z,77.01
2023-03-20T10:51:01.956Z,76.75
2023-03-20T10:53:49.207Z,76.57
2023-03-20T10:56:31.322Z,76.90
2023-03-20T10:59:13.895Z,76.23
2023-03-20T11:01:41.420Z,76.64
2023-03-20T11:04:08.429Z,76.12
2023-03-20T11:06:53.038Z,76.46
2023-03-20T11:09:26.653Z,76.85
2023-03-20T11:11:58.332Z,76.52
2023-03-20T11:14:35.368Z,76.19
2023-03-20T11:17:06.278Z,76.95
2023-03-20T11:19:35.570Z,76.50
2023-03-20T11:22:28.727Z,76.37
2023-03-20T11:25:01.730Z,75.35
2023-03-20T11:27:34.509Z,75.36
2023-03-20T11:30:07.385Z,75.04
2023-03-20T11:33:03.362Z,75.17
2023-03-20T11:35:32.357Z,74.51
2023-03-20T11:38:21.540Z,74.13
2023-03-20T11:40:52.514Z,74.06
2023-03-20T11:43:27.024Z,74.46
2023-03-20T11:46:04.356Z,74.42
2023-03-20T11:48:45.473Z,74.70
2023-03-20T11:51:20.028Z,75.51
2023-03-20T11:53:49.857Z,74.89
2023-03-20T11:56:26.464Z,75.42
2023-03-20T11:59:19.573Z,74.20
2023-03-20T12:01:53.108Z,74.52
2023-03-20T12:04:41.839Z,73.28
2023-03-20T12:07:25.540Z,73.59
2023-03-20T12:09:59.912Z,72.78
2023-03-20T12:12:48.911Z,74.22
2023-03-20T12:15:31.308Z,74.27
2023-03-20T12:18:52.690Z,74.24
2023-03-20T12:21:48.345Z,73.09
2023-03-20T12:24:29.767Z,72.83
2023-03-20T12:27:37.865Z,72.29
2023-03-20T12:30:30.123Z,72.95
2023-03-20T12:33:12.928Z,72.15
2023-03-20T12:35:46.193Z,71.75
2023-03-20T12:38:30.436Z,70.83
2023-03-20T12:41:29.040Z,72.17
2023-03-20T12:44:16.939Z,72.24
2023-03-20T12:46:57.459Z,72.39
2023-03-20T12:49:59.748Z,71.80
2023-03-20T12:52:41.597Z,70.69
2023-03-20T12:55:16.494Z,70.87
2023-03-20T12:58:04.754Z,71.58
2023-03-20T13:01:05.672Z,71.71
2023-03-20T13:03:59.835Z,71.17
2023-03-20T13:07:01.319Z,69.88
2023-03-20T13:10:12.824Z,71.00
2023-03-20T13:13:14.876Z,70.92
2023-03-20T13:16:16.635Z,71.48
2023-03-20T13:19:16.065Z,71.70
2023-03-20T13:22:23.230Z,70.25
2023-03-20T13:25:00.705Z,69.67
2023-03-20T13:27:53.361Z,69.23
2023-03-20T13:30:57.910Z,70.31
2023-03-20T13:33:36.985Z,68.74
2023-03-20T13:36:18.338Z,69.46
2023-03-20T13:39:01.011Z,70.33
2023-03-20T13:41:28.547Z,68.79
2023-03-20T13:44:01.684Z,68.91
2023-03-20T13:46:41.490Z,68.23
2023-03-20T13:49:37.809Z,69.48
2023-03-20T13:52:17.660Z,67.55
2023-03-20T13:55:00.413Z,69.23
2023-03-20T13:58:03.747Z,69.90
2023-03-20T14:00:47.045Z,67.57
2023-03-20T14:03:40.274Z,67.53
2023-03-20T14:06:39.499Z,66.97
2023-03-20T14:09:25.842Z,66.54
2023-03-20T14:12:09.777Z,66.41
2023-03-20T14:14:57.361Z,66.83
2023-03-20T14:17:30.719Z,66.32
2023-03-20T14:20:10.456Z,65.85
2023-03-20T14:22:40.921Z,66.12
2023-03-20T14:25:20.745Z,67.78
2023-03-20T14:28:00.390Z,66.23
2023-03-20T14:30:30.197Z,65.77
2023-03-20T14:33:06.647Z,64.40
2023-03-20T14:35:59.044Z,64.75
2023-03-20T14:38:44.927Z,65.46
2023-03-20T14:41:34.013Z,64.69
2023-03-20T14:44:46.377Z,64.31
2023-03-20T14:47:53.198Z,65.63
2023-03-20T14:50:46.090Z,65.75
2023-03-20T14:53:23.502Z,64.14
2023-03-20T14:55:57.731Z,65.32
2023-03-20T14:58:43.404Z,64.55
2023-03-20T15:01:21.531Z,64.15
2023-03-20T15:03:52.710Z,64.44
2023-03-20T15:06:22.469Z,64.58
2023-03-20T15:08:56.579Z,64.31
2023-03-20T15:11:25.233Z,64.53
2023-03-20T15:13:53.866Z,64.62
2023-03-20T15:16:34.183Z,65.53
2023-03-20T15:19:01.512Z,63.95
2023-03-20T15:21:37.922Z,65.09
2023-03-20T15:24:05.457Z,63.42
2023-03-20T15:26:35.782Z,63.01
2023-03-20T15:29:13.299Z,64.41
2023-03-20T15:31:41.195Z,62.73
2023-03-20T15:34:32.302Z,63.69
2023-03-20T15:37:02.414Z,62.01
2023-03-20T15:39:41.343Z,62.73
2023-03-20T15:42:15.847Z,62.74
2023-03-20T15:44:47.997Z,62.08
2023-03-20T15:47:22.255Z,63.05
2023-03-20T15:49:53.004Z,62.71
2023-03-20T15:52:41.738Z,63.86
2023-03-20T15:55:20.983Z,64.22
2023-03-20T15:57:50.371Z,62.70
2023-03-20T16:00:39.729Z,62.17
2023-03-20T16:03:16.921Z,63.21
2023-03-20T16:05:47.103Z,61.57
2023-03-20T16:08:31.646Z,61.59
2023-03-20T16:11:08.004Z,61.48
2023-03-20T16:13:40.556Z,62.41
2023-03-20T16:16:14.379Z,62.12
2023-03-20T16:18:42.722Z,61.43
2023-03-20T16:21:29.711Z,62.64
2023-03-20T16:23:59.645Z,61.97
2023-03-20T16:26:27.625Z,61.83
2023-03-20T16:29:02.498Z,62.20
2023-03-20T16:31:36.173Z,62.74
2023-03-20T16:34:09.346Z,62.13
2023-03-20T16:36:38.735Z,62.04
2023-03-20T16:39:17.320Z,62.59
2023-03-20T16:41:46.018Z,62.22
2023-03-20T16:44:25.145Z,62.06
2023-03-20T16:47:21.239Z,62.69
2023-03-20T16:49:54.178Z,61.89
2023-03-20T16:52:29.810Z,62.36
2023-03-20T16:54:59.064Z,62.30
2023-03-20T16:57:33.041Z,61.89
2023-03-20T17:00:08.947Z,61.61
2023-03-20T17:02:41.029Z,61.59
2023-03-20T17:05:13.778Z,62.10
2023-03-20T17:07:42.550Z,61.35
2023-03-20T17:10:18.529Z,62.27
2023-03-20T17:12:49.088Z,61.73
2023-03-20T17:15:19.105Z,61.13
2023-03-20T17:17:46.358Z,61.46
2023-03-20T17:20:28.442Z,61.69
2023-03-20T17:22:55.622Z,61.38
2023-03-20T17:25:23.193Z,61.38
2023-03-20T17:27:50.251Z,61.17
2023-03-20T17:30:22.214Z,61.44
2023-03-20T17:32:49.651Z,60.75
2023-03-20T17:35:17.025Z,60.98
2023-03-20T17:37:44.790Z,61.26
2023-03-20T17:40:20.201Z,61.71
2023-03-20T17:42:48.432Z,61.55
2023-03-20T17:45:20.484Z,61.80
2023-03-20T17:47:48.449Z,61.35
2023-03-20T17:50:26.883Z,61.64
2023-03-20T17:52:54.872Z,61.23
2023-03-20T17:55:22.386Z,61.10
2023-03-20T17:57:49.462Z,61.06
2023-03-20T18:00:24.748Z,61.43
2023-03-20T18:02:52.017Z,60.92
2023-03-20T18:05:19.645Z,61.38
2023-03-20T18:07:46.706Z,60.93
2023-03-20T18:10:25.656Z,61.50
2023-03-20T18:12:53.065Z,61.37
2023-03-20T18:15:20.345Z,61.42
2023-03-20T18:17:47.655Z,61.01
2023-03-20T18:20:31.311Z,61.33
2023-03-20T18:22:59.450Z,61.43
2023-03-20T18:25:27.396Z,61.54
2023-03-20T18:27:57.406Z,61.50
2023-03-20T18:30:46.731Z,61.73
2023-03-20T18:33:13.727Z,61.35
2023-03-20T18:35:40.981Z,61.21
2023-03-20T18:38:14.409Z,61.73
2023-03-20T18:40:43.651Z,61.48
2023-03-20T18:43:11.110Z,61.74
2023-03-20T18:45:41.550Z,61.78
2023-03-20T18:48:12.458Z,61.71
2023-03-20T18:50:42.897Z,61.60
2023-03-20T18:53:11.123Z,61.76
2023-03-20T18:55:39.009Z,61.50
2023-03-20T18:58:06.765Z,62.03
2023-03-20T19:00:40.410Z,62.15
2023-03-20T19:03:10.713Z,61.84
2023-03-20T19:05:38.125Z,61.55
2023-03-20T19:08:05.813Z,62.02
2023-03-20T19:10:38.036Z,62.03
2023-03-20T19:13:07.635Z,62.02
2023-03-20T19:15:37.181Z,61.99
2023-03-20T19:18:21.903Z,61.82
2023-03-20T19:20:52.277Z,61.79
2023-03-20T19:23:21.008Z,62.11
2023-03-20T19:25:53.794Z,61.96
2023-03-20T19:28:39.238Z,61.97
2023-03-20T19:31:10.034Z,61.94
2023-03-20T19:33:39.045Z,61.97
2023-03-20T19:36:08.887Z,62.17
2023-03-20T19:38:37.365Z,62.08
2023-03-20T19:41:04.910Z,62.23
2023-03-20T19:43:32.506Z,62.22
2023-03-20T19:46:00.160Z,62.16
2023-03-20T19:48:46.895Z,61.81
2023-03-20T19:51:23.862Z,62.03
2023-03-20T19:53:51.606Z,62.22
2023-03-20T19:56:22.766Z,62.02
2023-03-20T19:58:50.543Z,62.12
2023-03-20T20:01:25.177Z,61.97
2023-03-20T20:03:58.346Z,61.97
2023-03-20T20:06:31.350Z,62.08
2023-03-20T20:08:59.619Z,62.36
2023-03-20T20:11:27.101Z,61.97
2023-03-20T20:14:13.411Z,62.21
2023-03-20T20:16:46.036Z,62.41
2023-03-20T20:19:13.595Z,62.15
2023-03-20T20:24:28.215Z,62.00
2023-03-20T20:27:15.226Z,62.43
2023-03-20T20:29:47.475Z,62.10
2023-03-20T20:32:16.109Z,62.35
2023-03-20T20:40:20.574Z,62.56
2023-03-20T20:42:51.387Z,62.49
2023-03-20T20:45:21.115Z,62.31
2023-03-20T20:47:50.563Z,62.49
2023-03-20T20:50:24.908Z,62.28
2023-03-20T20:52:53.835Z,62.34
2023-03-20T20:55:24.110Z,62.62
2023-03-20T20:57:55.413Z,62.43
2023-03-20T21:00:37.235Z,62.09
2023-03-20T21:03:09.210Z,62.36
2023-03-20T21:05:38.662Z,62.40
2023-03-20T21:08:07.260Z,62.54
2023-03-20T21:10:34.531Z,62.23
2023-03-20T21:13:01.712Z,62.16
2023-03-20T21:15:28.925Z,62.27
2023-03-20T21:18:03.388Z,62.27
2023-03-20T21:20:32.334Z,62.31
2023-03-20T21:23:00.336Z,62.28
2023-03-20T21:25:39.770Z,62.54
2023-03-20T21:28:09.915Z,62.40
2023-03-20T21:30:49.935Z,62.34
2023-03-20T21:33:26.790Z,62.27
2023-03-20T21:35:54.062Z,62.84
2023-03-20T21:38:58.367Z,62.45
2023-03-20T21:41:10.732Z,62.52
2023-03-20T21:43:37.727Z,62.47
2023-03-20T21:49:49.807Z,62.59
2023-03-20T21:58:16.831Z,62.98
2023-03-20T22:02:49.151Z,62.65
2023-03-20T22:05:50.372Z,62.61
2023-03-20T22:09:09.666Z,62.97
2023-03-20T22:14:34.144Z,62.47
2023-03-20T22:17:25.889Z,62.60
2023-03-20T22:20:02.891Z,62.98
2023-03-20T22:28:07.040Z,63.07
2023-03-20T22:34:16.244Z,63.02
2023-03-20T22:42:24.184Z,62.81
2023-03-20T22:47:07.054Z,62.96
2023-03-20T22:49:34.022Z,62.98
2023-03-20T22:52:24.493Z,62.89
2023-03-20T22:54:48.007Z,62.77
2023-03-20T22:57:15.248Z,62.77
2023-03-20T22:59:42.242Z,62.97
2023-03-20T23:02:09.184Z,62.70
2023-03-20T23:04:54.878Z,63.13
2023-03-20T23:07:40.748Z,63.05
2023-03-20T23:10:09.653Z,62.97
2023-03-20T23:12:41.749Z,62.87
2023-03-20T23:15:10.096Z,62.80
2023-03-20T23:17:37.073Z,62.93
2023-03-20T23:20:12.616Z,63.03
2023-03-20T23:22:41.022Z,62.82
2023-03-20T23:25:18.525Z,62.96
2023-03-20T23:27:51.331Z,63.18
2023-03-20T23:30:19.798Z,62.82
2023-03-20T23:32:47.088Z,63.09
2023-03-20T23:35:14.181Z,63.06
2023-03-20T23:37:41.353Z,63.32
2023-03-20T23:40:10.652Z,63.07
2023-03-20T23:42:37.576Z,63.06
2023-03-20T23:45:19.237Z,63.16
2023-03-20T23:47:48.181Z,63.00
2023-03-20T23:50:28.538Z,63.18
2023-03-20T23:53:09.589Z,62.86
2023-03-20T23:55:41.223Z,63.18
2023-03-20T23:58:08.420Z,63.02
